Time;durP1;ratioP1;P1;durP2;ratioP2;P2;SDS_P1;SDS_P2;PMS_P1;PMS_P2;Temp;Humidity;BMP_temperature;BMP_pressure;BME280_temperature;BME280_humidity;BME280_pressure;Samples;Min_cycle;Max_cycle;Signal;HPM_P1;HPM_P2
2023/12/24 00:00:06;;;;;;;;;;;;;;;11.68;67.10;100789.19;5015525;28;20036;-66
2023/12/24 00:02:31;;;;;;;85.07;81.28;;;;;;;11.65;67.12;100793.22;5030309;28;19917;-67
2023/12/24 00:04:56;;;;;;;91.53;87.22;;;;;;;11.64;67.13;100790.75;5025503;28;20045;-67
2023/12/24 00:07:22;;;;;;;87.03;83.20;;;;;;;11.64;66.69;100786.19;5020662;28;20030;-69
2023/12/24 00:09:47;;;;;;;92.40;88.20;;;;;;;11.66;67.02;100794.03;5018070;28;20033;-68
2023/12/24 00:12:13;;;;;;;86.35;82.47;;;;;;;11.63;66.98;100794.53;5028686;28;20374;-70
2023/12/24 00:14:38;;;;;;;89.90;85.80;;;;;;;11.61;66.92;100789.38;5026360;28;20088;-69
2023/12/24 00:17:03;;;;;;;86.75;82.90;;;;;;;11.61;67.09;100802.06;5020310;28;20052;-68
2023/12/24 00:19:29;;;;;;;91.07;86.88;;;;;;;11.61;66.80;100821.84;5027131;28;20124;-69
2023/12/24 00:21:54;;;;;;;92.10;87.80;;;;;;;11.63;66.70;100802.66;5023333;28;20478;-70
2023/12/24 00:24:20;;;;;;;89.40;85.47;;;;;;;11.66;66.85;100802.97;5029992;28;20045;-69
2023/12/24 00:26:45;;;;;;;91.57;87.38;;;;;;;11.68;66.57;100805.44;5026100;28;20303;-69
2023/12/24 00:29:10;;;;;;;86.10;82.35;;;;;;;11.66;66.58;100794.84;5028017;28;20513;-69
2023/12/24 00:31:36;;;;;;;89.55;85.63;;;;;;;11.65;66.89;100787.81;5033658;28;20491;-68
2023/12/24 00:34:02;;;;;;;91.57;87.57;;;;;;;11.62;66.59;100763.16;5014333;28;20072;-68
2023/12/24 00:36:28;;;;;;;89.30;85.32;;;;;;;11.61;67.06;100759.59;5014367;28;20470;-69
2023/12/24 00:38:53;;;;;;;84.95;80.82;;;;;;;11.59;66.86;100750.94;5022426;28;20030;-69
2023/12/24 00:41:19;;;;;;;86.93;82.88;;;;;;;11.59;67.04;100748.25;5029250;28;20063;-68
2023/12/24 00:43:45;;;;;;;88.45;84.60;;;;;;;11.60;67.15;100736.34;5020885;28;20512;-67
2023/12/24 00:46:14;;;;;;;87.53;83.72;;;;;;;11.61;66.70;100732.56;5012731;28;20445;-70
2023/12/24 00:48:40;;;;;;;86.68;82.90;;;;;;;11.60;66.95;100733.63;5022980;28;20045;-72
2023/12/24 00:51:06;;;;;;;88.88;84.95;;;;;;;11.62;66.86;100717.16;5029194;28;20095;-69
2023/12/24 00:53:31;;;;;;;86.25;82.50;;;;;;;11.61;66.96;100702.78;5028960;28;20037;-69
2023/12/24 00:55:57;;;;;;;88.25;84.30;;;;;;;11.61;66.86;100693.84;5029235;28;20034;-68
2023/12/24 00:58:23;;;;;;;86.35;82.55;;;;;;;11.60;66.94;100682.22;5018494;28;20073;-68
2023/12/24 01:00:48;;;;;;;90.45;86.13;;;;;;;11.60;66.71;100666.00;5019728;28;20041;-69
2023/12/24 01:03:14;;;;;;;87.80;83.90;;;;;;;11.61;67.03;100672.22;5030671;28;20481;-69
2023/12/24 01:05:40;;;;;;;85.82;82.03;;;;;;;11.61;67.04;100691.97;5022554;28;20150;-68
2023/12/24 01:08:05;;;;;;;87.82;83.82;;;;;;;11.62;67.11;100679.28;5029558;28;20049;-68
2023/12/24 01:10:31;;;;;;;89.60;85.40;;;;;;;11.63;66.64;100668.19;5028690;28;20058;-69
2023/12/24 01:12:56;;;;;;;91.50;87.43;;;;;;;11.62;67.10;100663.88;5021114;28;20501;-70
2023/12/24 01:15:22;;;;;;;89.03;85.00;;;;;;;11.66;67.08;100656.03;5017594;28;20045;-68
2023/12/24 01:17:47;;;;;;;91.05;87.07;;;;;;;11.63;66.88;100662.78;5018994;28;20038;-68
2023/12/24 01:20:16;;;;;;;88.88;84.97;;;;;;;11.64;66.91;100659.03;5024473;28;20065;-69
2023/12/24 01:22:42;;;;;;;;;;;;;;;11.63;67.34;100676.31;5031926;28;20056;-67
2023/12/24 01:25:09;;;;;;;86.03;82.13;;;;;;;11.59;67.44;100664.38;5018656;28;19909;-68
2023/12/24 01:27:35;;;;;;;87.07;83.28;;;;;;;11.59;67.51;100663.53;5017460;28;20026;-69
2023/12/24 01:30:00;;;;;;;91.43;87.25;;;;;;;11.60;67.22;100667.88;5031850;28;20029;-69
2023/12/24 01:32:26;;;;;;;86.32;82.53;;;;;;;11.57;67.53;100666.50;5026619;28;20171;-69
2023/12/24 01:34:51;;;;;;;86.68;82.57;;;;;;;11.57;66.92;100669.22;5027229;28;20065;-69
2023/12/24 01:37:17;;;;;;;88.85;84.75;;;;;;;11.58;67.19;100662.72;5032500;28;20038;-69
2023/12/24 01:39:42;;;;;;;89.10;84.90;;;;;;;11.58;67.19;100664.63;5029282;28;20034;-69
2023/12/24 01:42:08;;;;;;;90.57;85.65;;;;;;;11.59;67.21;100656.25;5017782;28;20060;-68
2023/12/24 01:44:33;;;;;;;89.43;85.45;;;;;;;11.62;67.53;100658.44;5033466;28;20133;-68
2023/12/24 01:46:59;;;;;;;88.07;84.15;;;;;;;11.65;67.50;100666.06;5024526;28;20455;-68
2023/12/24 01:49:25;;;;;;;91.13;86.95;;;;;;;11.66;67.27;100667.69;5024716;28;20041;-70
2023/12/24 01:51:51;;;;;;;86.22;82.43;;;;;;;11.68;67.11;100670.16;5027045;28;20025;-69
2023/12/24 01:54:17;;;;;;;89.30;85.32;;;;;;;11.69;67.55;100666.34;5028937;28;20133;-68
2023/12/24 01:56:42;;;;;;;90.50;86.50;;;;;;;11.70;67.23;100665.31;5030327;28;20471;-68
2023/12/24 01:59:09;;;;;;;92.38;88.13;;;;;;;11.70;67.29;100668.00;5013006;28;20044;-71
2023/12/24 02:01:35;;;;;;;90.05;86.07;;;;;;;11.69;67.64;100672.63;5030839;28;20026;-68
2023/12/24 02:04:01;;;;;;;89.78;85.53;;;;;;;11.72;67.56;100673.16;5018240;28;20084;-69
2023/12/24 02:06:27;;;;;;;90.20;86.30;;;;;;;11.73;67.57;100675.63;5020769;28;20033;-70
2023/12/24 02:08:55;;;;;;;91.68;87.03;;;;;;;11.74;67.49;100679.13;5017019;28;20081;-68
2023/12/24 02:11:21;;;;;;;87.50;83.63;;;;;;;11.73;67.77;100681.03;5015279;28;20116;-69
2023/12/24 02:13:47;;;;;;;86.10;82.22;;;;;;;11.73;67.89;100666.69;5026846;28;20453;-68
2023/12/24 02:16:17;;;;;;;90.10;86.10;;;;;;;11.74;67.92;100666.41;5022412;28;20041;-70
2023/12/24 02:18:43;;;;;;;89.30;85.38;;;;;;;11.75;68.11;100665.38;5028583;28;20037;-71
2023/12/24 02:21:08;;;;;;;92.07;87.38;;;;;;;11.75;67.92;100653.72;5022768;28;20033;-70
2023/12/24 02:23:33;;;;;;;91.15;87.05;;;;;;;11.74;67.92;100649.38;5029265;28;20029;-68
2023/12/24 02:26:11;;;;;;;88.82;84.82;;;;;;;11.76;68.03;100639.94;5019165;28;20030;-68
2023/12/24 02:28:41;;;;;;;86.28;82.43;;;;;;;11.76;68.10;100642.63;5019688;28;20128;-68
2023/12/24 02:31:11;;;;;;;85.07;81.25;;;;;;;11.75;68.17;100635.59;5017007;28;20100;-68
2023/12/24 02:33:41;;;;;;;87.35;83.55;;;;;;;11.75;68.30;100630.19;5015384;28;20034;-68
2023/12/24 02:36:09;;;;;;;89.55;85.55;;;;;;;11.75;68.13;100610.44;5027221;28;20037;-69
2023/12/24 02:38:34;;;;;;;89.78;85.50;;;;;;;11.76;67.94;100614.75;5029185;28;20030;-69
2023/12/24 02:41:01;;;;;;;84.88;81.05;;;;;;;11.77;68.43;100608.28;5024590;28;20053;-68
2023/12/24 02:43:26;;;;;;;87.55;83.70;;;;;;;11.78;68.42;100608.03;5030144;28;20080;-69
2023/12/24 02:45:51;;;;;;;89.95;86.00;;;;;;;11.79;68.13;100612.38;5031098;28;20045;-68
2023/12/24 02:48:17;;;;;;;89.38;85.28;;;;;;;11.80;68.09;100605.09;5026919;28;20124;-69
2023/12/24 02:50:42;;;;;;;92.53;88.32;;;;;;;11.80;68.06;100602.38;5023990;28;20091;-70
2023/12/24 02:53:07;;;;;;;91.05;86.75;;;;;;;11.76;68.23;100604.75;5028618;28;20034;-69
2023/12/24 02:55:33;;;;;;;89.00;85.05;;;;;;;11.75;68.40;100602.31;5019633;28;20042;-69
2023/12/24 02:57:58;;;;;;;85.75;81.90;;;;;;;11.77;68.57;100602.84;5024660;28;20041;-68
2023/12/24 03:00:24;;;;;;;87.45;83.63;;;;;;;11.79;68.21;100598.00;5029152;28;20038;-69
2023/12/24 03:02:49;;;;;;;89.57;85.68;;;;;;;11.79;68.14;100589.91;5030030;28;20471;-68
2023/12/24 03:05:14;;;;;;;84.10;80.30;;;;;;;11.76;68.32;100593.94;5013565;28;20113;-67
2023/12/24 03:07:40;;;;;;;90.32;86.32;;;;;;;11.74;68.64;100595.25;5026597;28;20065;-69
2023/12/24 03:10:06;;;;;;;90.68;86.65;;;;;;;11.70;68.75;100582.25;5028591;28;20034;-70
2023/12/24 03:12:32;;;;;;;88.63;84.65;;;;;;;11.73;68.68;100590.94;5013575;28;20126;-70
2023/12/24 03:14:57;;;;;;;85.53;81.78;;;;;;;11.73;69.06;100577.41;5013536;28;20072;-68
2023/12/24 03:17:23;;;;;;;88.85;85.00;;;;;;;11.72;68.82;100565.75;5024301;28;20573;-70
2023/12/24 03:19:48;;;;;;;91.10;87.13;;;;;;;11.71;68.93;100561.41;5028562;28;20037;-68
2023/12/24 03:22:13;;;;;;;93.90;89.63;;;;;;;11.73;68.86;100561.16;5024012;28;20069;-69
2023/12/24 03:24:39;;;;;;;85.38;81.63;;;;;;;11.72;68.83;100554.09;5024527;28;20038;-67
2023/12/24 03:27:04;;;;;;;88.85;84.95;;;;;;;11.69;69.11;100545.44;5021298;28;20090;-68
2023/12/24 03:29:29;;;;;;;86.72;82.78;;;;;;;11.75;68.92;100559.03;5028165;28;20073;-69
2023/12/24 03:31:55;;;;;;;90.13;86.13;;;;;;;11.74;69.04;100547.34;5020761;28;20029;-67
2023/12/24 03:34:21;;;;;;;87.30;83.50;;;;;;;11.76;68.88;100544.41;5014438;28;20109;-67
2023/12/24 03:36:47;;;;;;;92.75;88.72;;;;;;;11.75;68.95;100551.72;5012401;28;20129;-69
2023/12/24 03:39:12;;;;;;;90.32;86.32;;;;;;;11.74;69.17;100546.53;5026081;28;20033;-67
2023/12/24 03:41:37;;;;;;;91.10;87.15;;;;;;;11.75;68.81;100543.59;5018437;28;20034;-67
2023/12/24 03:44:03;;;;;;;89.10;85.13;;;;;;;11.74;69.41;100539.25;5027885;28;20137;-70
2023/12/24 03:46:29;;;;;;;87.65;83.75;;;;;;;11.73;69.32;100534.09;5021112;28;20448;-68
2023/12/24 03:48:54;;;;;;;89.93;86.03;;;;;;;11.73;69.09;100528.69;5025214;28;20046;-70
2023/12/24 03:51:20;;;;;;;87.20;83.35;;;;;;;11.74;69.06;100519.50;5018080;28;20096;-68
2023/12/24 03:53:45;;;;;;;85.72;82.00;;;;;;;11.76;69.20;100517.34;5028819;28;20041;-67
2023/12/24 03:56:11;;;;;;;92.57;88.50;;;;;;;11.76;69.36;100531.69;5029031;28;20069;-68
2023/12/24 03:58:39;;;;;;;88.45;84.60;;;;;;;11.77;69.48;100536.06;5028215;28;20045;-70
2023/12/24 04:01:11;;;;;;;87.15;83.35;;;;;;;11.78;69.42;100534.16;5027028;28;22216;-71
2023/12/24 04:03:37;;;;;;;89.38;85.50;;;;;;;11.76;69.07;100534.41;5029006;28;20038;-68
2023/12/24 04:06:10;;;;;;;86.50;82.70;;;;;;;11.76;69.56;100539.00;5012635;28;20037;-68
2023/12/24 04:08:35;;;;;;;85.43;81.63;;;;;;;11.76;69.25;100536.28;5023253;28;20041;-69
2023/12/24 04:11:00;;;;;;;88.13;84.32;;;;;;;11.76;69.64;100523.56;5030523;28;20026;-69
2023/12/24 04:13:26;;;;;;;86.13;82.35;;;;;;;11.77;69.54;100532.50;5022030;28;20156;-69
2023/12/24 04:15:51;;;;;;;86.88;83.10;;;;;;;11.74;69.44;100524.91;5016337;28;20427;-68
2023/12/24 04:18:16;;;;;;;81.32;77.68;;;;;;;11.75;69.53;100515.72;5019950;28;20041;-70
2023/12/24 04:20:42;;;;;;;92.10;88.00;;;;;;;11.75;69.65;100519.25;5011741;28;20034;-68
2023/12/24 04:23:07;;;;;;;85.85;82.05;;;;;;;11.75;69.48;100513.03;5031139;28;20446;-69
2023/12/24 04:25:32;;;;;;;85.47;81.72;;;;;;;11.74;69.37;100506.78;5030635;28;20038;-70
2023/12/24 04:27:58;;;;;;;87.03;83.22;;;;;;;11.73;69.61;100510.56;5018079;28;20065;-70
2023/12/24 04:30:23;;;;;;;87.70;83.80;;;;;;;11.72;69.59;100506.25;5027029;28;20046;-68
2023/12/24 04:32:49;;;;;;;88.78;84.90;;;;;;;11.72;69.79;100517.06;5021161;28;20516;-68
2023/12/24 04:35:14;;;;;;;88.65;84.72;;;;;;;11.75;69.78;100516.53;5016892;28;20390;-68
2023/12/24 04:37:39;;;;;;;86.05;82.05;;;;;;;11.76;69.83;100510.03;5010861;28;20034;-69
2023/12/24 04:40:06;;;;;;;87.20;83.38;;;;;;;11.79;69.61;100506.84;5013911;28;21250;-69
2023/12/24 04:42:31;;;;;;;89.10;85.25;;;;;;;11.80;69.55;100502.25;5027648;28;20444;-68
2023/12/24 04:44:57;;;;;;;81.82;78.22;;;;;;;11.81;69.50;100504.69;5023238;28;20046;-69
2023/12/24 04:47:22;;;;;;;86.13;82.25;;;;;;;11.82;69.66;100505.53;5012403;28;20026;-72
2023/12/24 04:49:47;;;;;;;84.88;81.18;;;;;;;11.81;69.82;100512.78;5031085;28;20033;-68
2023/12/24 04:52:13;;;;;;;88.95;85.03;;;;;;;11.82;69.64;100509.03;5014342;28;20520;-67
2023/12/24 04:54:38;;;;;;;86.22;82.47;;;;;;;11.81;69.68;100510.09;5029593;28;20037;-69
2023/12/24 04:57:04;;;;;;;85.10;81.40;;;;;;;11.81;69.87;100501.97;5030240;28;20508;-70
2023/12/24 04:59:29;;;;;;;88.25;84.45;;;;;;;11.80;69.67;100508.47;5024252;28;20038;-68
2023/12/24 05:01:55;;;;;;;88.50;84.65;;;;;;;11.82;69.84;100500.91;5020795;28;20062;-69
2023/12/24 05:04:20;;;;;;;89.32;85.38;;;;;;;11.83;70.06;100499.03;5023800;28;20658;-67
2023/12/24 05:06:46;;;;;;;89.78;85.85;;;;;;;11.84;69.88;100495.22;5021025;28;20067;-69
2023/12/24 05:09:11;;;;;;;86.43;82.65;;;;;;;11.85;69.63;100503.09;5021883;28;20489;-68
2023/12/24 05:11:39;;;;;;;86.43;82.68;;;;;;;11.84;69.72;100506.06;5015148;28;20409;-68
2023/12/24 05:14:05;;;;;;;88.30;84.45;;;;;;;11.84;69.90;100503.34;5018128;28;20033;-69
2023/12/24 05:16:30;;;;;;;89.40;85.53;;;;;;;11.86;69.88;100503.91;5011671;28;20462;-69
2023/12/24 05:18:56;;;;;;;90.35;86.45;;;;;;;11.87;69.88;100511.00;5021836;28;20164;-69
2023/12/24 05:21:21;;;;;;;88.68;84.68;;;;;;;11.87;69.65;100500.19;5021637;28;20394;-69
2023/12/24 05:23:46;;;;;;;92.45;88.45;;;;;;;11.87;69.90;100502.88;5029852;28;20048;-68
2023/12/24 05:26:12;;;;;;;87.65;83.82;;;;;;;11.89;69.74;100496.16;5025431;28;20037;-70
2023/12/24 05:28:37;;;;;;;85.05;81.35;;;;;;;11.91;69.50;100495.88;5027633;28;20096;-68
2023/12/24 05:31:03;;;;;;;90.00;86.10;;;;;;;11.91;69.96;100483.16;5029781;28;20037;-68
2023/12/24 05:33:28;;;;;;;91.43;87.25;;;;;;;11.90;70.08;100478.81;5023991;28;20037;-69
2023/12/24 05:35:54;;;;;;;84.53;80.82;;;;;;;11.90;70.30;100478.00;5015227;28;20463;-68
2023/12/24 05:38:19;;;;;;;90.40;86.40;;;;;;;11.90;70.09;100483.41;5009943;28;20632;-68
2023/12/24 05:40:45;;;;;;;87.55;83.75;;;;;;;11.89;70.06;100485.31;5024463;28;20041;-68
2023/12/24 05:43:11;;;;;;;84.90;81.20;;;;;;;11.89;70.01;100471.78;5011451;28;20393;-68
2023/12/24 05:45:37;;;;;;;86.38;82.60;;;;;;;11.90;70.11;100475.31;5029056;28;20540;-69
2023/12/24 05:48:03;;;;;;;87.85;84.03;;;;;;;11.90;69.82;100486.13;5024449;28;20037;-69
2023/12/24 05:50:28;;;;;;;90.93;86.93;;;;;;;11.91;70.29;100482.34;5011095;28;20493;-70
2023/12/24 05:52:53;;;;;;;87.53;83.70;;;;;;;11.89;70.28;100468.25;5015679;28;20420;-69
2023/12/24 05:55:19;;;;;;;92.28;88.18;;;;;;;11.90;69.97;100470.69;5026189;28;20121;-68
2023/12/24 05:57:44;;;;;;;89.55;85.65;;;;;;;11.89;70.38;100470.94;5013162;28;20037;-68
2023/12/24 06:00:10;;;;;;;87.38;83.55;;;;;;;11.91;70.26;100472.31;5026022;28;20064;-69
2023/12/24 06:02:35;;;;;;;92.43;88.32;;;;;;;11.92;69.84;100473.16;5020848;28;20030;-68
2023/12/24 06:05:01;;;;;;;92.07;88.07;;;;;;;11.92;70.25;100478.56;5015598;28;20485;-68
2023/12/24 06:07:27;;;;;;;93.55;89.35;;;;;;;11.89;70.37;100468.25;5017999;28;20042;-68
2023/12/24 06:09:52;;;;;;;90.63;86.65;;;;;;;11.89;70.58;100470.94;5023720;28;20045;-68
2023/12/24 06:12:18;;;;;;;88.88;84.88;;;;;;;11.90;70.38;100469.88;5019794;28;20040;-68
2023/12/24 06:14:43;;;;;;;90.80;86.85;;;;;;;11.90;70.74;100469.88;5032806;28;20493;-71
2023/12/24 06:17:08;;;;;;;87.70;83.88;;;;;;;11.90;70.42;100459.88;5030501;28;20033;-69
2023/12/24 06:19:34;;;;;;;88.22;84.25;;;;;;;11.90;70.49;100461.78;5025587;28;20120;-69
2023/12/24 06:22:00;;;;;;;90.70;86.72;;;;;;;11.91;70.48;100463.38;5018550;28;20041;-68
2023/12/24 06:24:26;;;;;;;92.85;88.75;;;;;;;11.92;70.23;100462.34;5030180;28;20041;-69
2023/12/24 06:26:51;;;;;;;90.20;86.28;;;;;;;11.91;70.31;100452.56;5030532;28;20038;-69
2023/12/24 06:29:17;;;;;;;91.80;87.82;;;;;;;11.92;70.55;100451.50;5027220;28;20478;-69
2023/12/24 06:31:43;;;;;;;88.68;84.80;;;;;;;11.93;70.81;100446.91;5032265;28;20056;-69
2023/12/24 06:34:09;;;;;;;89.63;85.72;;;;;;;11.92;70.53;100443.38;5028885;28;20458;-69
2023/12/24 06:36:35;;;;;;;89.70;85.72;;;;;;;11.92;70.49;100443.38;5031644;28;20157;-69
2023/12/24 06:39:00;;;;;;;89.72;85.80;;;;;;;11.93;70.93;100445.00;5031225;28;20116;-68
2023/12/24 06:41:26;;;;;;;92.35;88.30;;;;;;;11.93;70.78;100447.72;5030368;28;20042;-68
2023/12/24 06:43:51;;;;;;;91.57;87.60;;;;;;;11.94;70.63;100438.50;5031618;28;20061;-68
2023/12/24 06:46:17;;;;;;;88.32;84.40;;;;;;;11.96;70.53;100449.09;5017428;28;20490;-68
2023/12/24 06:48:43;;;;;;;90.90;86.97;;;;;;;11.97;70.48;100446.13;5030940;28;20480;-68
2023/12/24 06:51:08;;;;;;;91.55;87.55;;;;;;;11.96;70.74;100452.59;5025990;28;20037;-69
2023/12/24 06:53:34;;;;;;;87.50;83.60;;;;;;;11.98;70.55;100453.16;5031853;28;20041;-69
2023/12/24 06:56:00;;;;;;;91.90;87.90;;;;;;;11.99;70.77;100441.25;5032282;28;20033;-69
2023/12/24 06:58:25;;;;;;;92.03;87.93;;;;;;;12.01;70.60;100436.41;5030491;28;20088;-69
2023/12/24 07:00:50;;;;;;;87.38;83.60;;;;;;;12.02;70.47;100445.31;5029922;28;20121;-69
2023/12/24 07:03:16;;;;;;;90.10;86.18;;;;;;;11.99;70.77;100426.91;5028379;28;20033;-69
2023/12/24 07:05:42;;;;;;;89.25;85.30;;;;;;;12.00;70.63;100437.50;5021365;28;20601;-69
2023/12/24 07:08:07;;;;;;;89.15;85.25;;;;;;;11.99;70.87;100435.84;5020943;28;20041;-69
2023/12/24 07:10:33;;;;;;;92.63;88.43;;;;;;;11.99;70.94;100435.03;5020936;28;20045;-69
2023/12/24 07:12:59;;;;;;;91.55;87.55;;;;;;;12.01;70.68;100439.09;5024369;28;20040;-70
2023/12/24 07:15:24;;;;;;;93.68;89.55;;;;;;;12.01;70.90;100433.69;5025778;28;20160;-69
2023/12/24 07:17:50;;;;;;;89.75;85.80;;;;;;;12.00;70.96;100439.38;5017392;28;20041;-69
2023/12/24 07:20:16;;;;;;;90.07;86.18;;;;;;;12.01;71.14;100439.09;5030838;28;20029;-69
2023/12/24 07:22:42;;;;;;;91.75;87.70;;;;;;;12.03;71.08;100436.97;5030939;28;20055;-69
2023/12/24 07:25:08;;;;;;;92.28;88.28;;;;;;;12.03;70.92;100436.97;5031443;28;20088;-69
2023/12/24 07:27:33;;;;;;;94.82;90.63;;;;;;;12.04;70.70;100433.16;5023155;28;20117;-69
2023/12/24 07:29:58;;;;;;;92.20;88.20;;;;;;;12.06;71.05;100443.75;5041479;28;20172;-69
2023/12/24 07:32:24;;;;;;;89.65;85.75;;;;;;;12.05;70.89;100432.09;5027420;28;20034;-70
2023/12/24 07:34:49;;;;;;;94.43;90.32;;;;;;;12.06;70.95;100430.22;5014239;28;20497;-69
2023/12/24 07:37:15;;;;;;;95.80;91.53;;;;;;;12.07;70.85;100438.09;5028901;28;20044;-69
2023/12/24 07:39:42;;;;;;;90.72;86.53;;;;;;;12.09;71.06;100449.44;5027942;28;20042;-69
2023/12/24 07:42:07;;;;;;;90.07;86.13;;;;;;;12.11;70.91;100446.50;5014395;28;20037;-70
2023/12/24 07:44:33;;;;;;;93.80;89.70;;;;;;;12.11;70.60;100449.19;5013055;28;20030;-69
2023/12/24 07:46:58;;;;;;;92.45;88.43;;;;;;;12.11;70.88;100447.31;5013999;28;20037;-70
2023/12/24 07:49:26;;;;;;;91.20;87.25;;;;;;;12.12;71.04;100450.84;5019900;28;20037;-69
2023/12/24 07:51:51;;;;;;;94.05;89.88;;;;;;;12.12;71.08;100446.25;5012518;28;20099;-69
2023/12/24 07:54:17;;;;;;;91.95;87.97;;;;;;;12.13;71.10;100442.44;5024474;28;20045;-69
2023/12/24 07:56:42;;;;;;;92.22;88.10;;;;;;;12.15;71.08;100444.91;5014172;28;20033;-69
2023/12/24 07:59:08;;;;;;;92.18;88.18;;;;;;;12.16;71.29;100446.53;5030579;28;20091;-69
2023/12/24 08:01:33;;;;;;;92.72;88.55;;;;;;;12.15;71.09;100446.81;5031580;28;20433;-69
2023/12/24 08:03:58;;;;;;;92.00;88.00;;;;;;;12.15;71.09;100450.31;5027823;28;20470;-69
2023/12/24 08:06:24;;;;;;;91.65;87.65;;;;;;;12.15;71.06;100444.91;5021907;28;20025;-69
2023/12/24 08:08:49;;;;;;;94.75;90.63;;;;;;;12.15;70.93;100454.94;5014599;28;20041;-69
2023/12/24 08:11:15;;;;;;;91.05;87.10;;;;;;;12.16;71.21;100457.34;5014054;28;20521;-70
2023/12/24 08:13:40;;;;;;;95.55;91.25;;;;;;;12.16;71.25;100461.97;5023557;28;20044;-69
2023/12/24 08:16:06;;;;;;;94.03;89.85;;;;;;;12.17;71.30;100447.34;5031309;28;20100;-69
2023/12/24 08:18:31;;;;;;;92.97;88.93;;;;;;;12.18;70.91;100446.28;5021706;28;20084;-69
2023/12/24 08:20:57;;;;;;;95.35;91.15;;;;;;;12.18;71.13;100446.28;5023691;28;20040;-69
2023/12/24 08:23:22;;;;;;;95.47;91.30;;;;;;;12.18;71.00;100438.97;5020962;28;20144;-70
2023/12/24 08:25:48;;;;;;;96.95;92.57;;;;;;;12.18;70.79;100441.66;5026888;28;20105;-72
2023/12/24 08:28:13;;;;;;;90.07;86.15;;;;;;;12.19;70.74;100429.75;5025166;28;20109;-70
2023/12/24 08:30:39;;;;;;;92.82;88.65;;;;;;;12.20;71.17;100427.88;5029290;28;20037;-70
2023/12/24 08:33:05;;;;;;;92.55;88.50;;;;;;;12.20;71.32;100436.81;5040316;28;20389;-69
2023/12/24 08:35:32;;;;;;;92.38;88.32;;;;;;;12.22;70.94;100431.97;5017606;28;20040;-71
2023/12/24 08:37:58;;;;;;;93.82;89.78;;;;;;;12.22;70.85;100426.53;5025627;28;20092;-71
2023/12/24 08:40:27;;;;;;;97.22;93.00;;;;;;;12.22;70.96;100429.25;5027162;28;20037;-71
2023/12/24 08:42:52;;;;;;;94.47;90.40;;;;;;;12.22;70.95;100431.13;5026556;28;20133;-71
2023/12/24 08:45:18;;;;;;;92.10;88.13;;;;;;;12.23;70.90;100430.88;5026269;28;20160;-71
2023/12/24 08:47:44;;;;;;;96.05;91.75;;;;;;;12.23;71.12;100425.44;5023983;28;20042;-71
2023/12/24 08:50:10;;;;;;;94.53;90.40;;;;;;;12.24;71.25;100426.25;5011979;28;20045;-71
2023/12/24 08:52:36;;;;;;;94.35;90.10;;;;;;;12.24;70.85;100426.25;5011726;28;20052;-72
2023/12/24 08:55:01;;;;;;;96.65;92.50;;;;;;;12.22;71.18;100431.97;5012060;28;20057;-73
2023/12/24 08:57:27;;;;;;;92.28;88.20;;;;;;;12.22;71.26;100441.94;5021221;28;20525;-71
2023/12/24 08:59:52;;;;;;;94.13;89.97;;;;;;;12.23;71.17;100430.06;5018000;28;20482;-71
2023/12/24 09:02:18;;;;;;;91.10;86.97;;;;;;;12.25;71.14;100449.56;5011900;28;20124;-71
2023/12/24 09:04:46;;;;;;;95.95;91.65;;;;;;;12.27;71.23;100456.38;5026798;28;20050;-72
2023/12/24 09:07:12;;;;;;;95.82;91.50;;;;;;;12.29;71.33;100456.09;5013512;28;20041;-72
2023/12/24 09:09:37;;;;;;;95.88;91.55;;;;;;;12.30;71.20;100461.25;5019734;28;20045;-72
2023/12/24 09:12:03;;;;;;;94.43;90.22;;;;;;;12.33;71.13;100460.72;5030196;28;20384;-71
2023/12/24 09:14:28;;;;;;;95.53;91.38;;;;;;;12.35;71.24;100471.31;5030987;28;20029;-71
2023/12/24 09:16:53;;;;;;;98.90;94.55;;;;;;;12.36;71.25;100455.88;5026020;28;20048;-72
2023/12/24 09:19:19;;;;;;;95.20;90.18;;;;;;;12.36;71.13;100443.13;5021321;28;20038;-71
2023/12/24 09:21:44;;;;;;;97.88;93.55;;;;;;;12.37;71.25;100438.53;5027310;28;20037;-72
2023/12/24 09:24:09;;;;;;;97.68;93.38;;;;;;;12.37;70.91;100435.81;5019801;28;20041;-71
2023/12/24 09:26:35;;;;;;;95.03;90.78;;;;;;;12.36;71.18;100424.19;5029516;28;20031;-72
2023/12/24 09:29:01;;;;;;;97.32;92.97;;;;;;;12.38;71.15;100419.31;5011880;28;20037;-72
2023/12/24 09:31:26;;;;;;;96.72;92.32;;;;;;;12.38;71.05;100430.16;5011711;28;20105;-72
2023/12/24 09:33:52;;;;;;;95.35;91.05;;;;;;;12.39;71.07;100431.78;5017839;28;20060;-70
2023/12/24 09:36:17;;;;;;;99.38;94.57;;;;;;;12.40;71.42;100438.84;5033259;28;20121;-71
2023/12/24 09:38:43;;;;;;;96.85;92.45;;;;;;;12.42;71.03;100425.81;5028534;28;20038;-70
2023/12/24 09:41:08;;;;;;;95.97;91.72;;;;;;;12.43;71.21;100432.06;5033274;28;20462;-71
2023/12/24 09:43:37;;;;;;;98.03;93.65;;;;;;;12.44;70.92;100444.53;5033377;28;20152;-71
2023/12/24 09:46:03;;;;;;;96.40;91.93;;;;;;;12.45;71.29;100433.44;5032374;28;20029;-72
2023/12/24 09:48:28;;;;;;;98.68;94.10;;;;;;;12.46;71.02;100429.66;5027127;28;20042;-72
2023/12/24 09:50:54;;;;;;;100.03;95.43;;;;;;;12.49;71.22;100433.72;5030933;28;20043;-72
2023/12/24 09:53:19;;;;;;;100.10;95.50;;;;;;;12.44;70.93;100420.16;5018453;28;20371;-72
2023/12/24 09:55:45;;;;;;;98.88;94.38;;;;;;;12.43;71.02;100432.06;5023053;28;20386;-72
2023/12/24 09:58:10;;;;;;;97.65;93.22;;;;;;;12.40;71.83;100429.88;5024320;28;20069;-72
2023/12/24 10:00:35;;;;;;;99.47;95.13;;;;;;;12.39;71.54;100433.66;5019013;28;20386;-70
2023/12/24 10:03:01;;;;;;;99.03;94.13;;;;;;;12.40;71.59;100444.25;5014292;28;20117;-69
2023/12/24 10:05:26;;;;;;;100.93;96.43;;;;;;;12.41;71.22;100447.78;5021961;28;20030;-69
2023/12/24 10:07:52;;;;;;;105.20;100.30;;;;;;;12.41;72.09;100442.34;5018618;28;20448;-69
2023/12/24 10:10:28;;;;;;;94.28;89.97;;;;;;;12.43;71.59;100432.06;5024369;28;20033;-69
2023/12/24 10:13:05;;;;;;;97.65;93.28;;;;;;;12.45;71.49;100438.88;5013929;28;20121;-69
2023/12/24 10:15:32;;;;;;;96.72;92.55;;;;;;;12.46;71.95;100439.66;5014707;28;20112;-70
2023/12/24 10:18:15;;;;;;;101.10;96.18;;;;;;;12.43;71.85;100438.31;5023154;28;20072;-72
2023/12/24 10:20:40;;;;;;;96.88;92.72;;;;;;;12.41;71.72;100434.22;5027973;28;20037;-70
2023/12/24 10:23:06;;;;;;;99.75;95.20;;;;;;;12.41;71.97;100436.94;5030991;28;20037;-70
2023/12/24 10:25:31;;;;;;;97.43;93.15;;;;;;;12.41;72.40;100429.63;5029446;28;20083;-70
2023/12/24 10:28:05;;;;;;;101.15;96.07;;;;;;;12.42;72.25;100427.72;5032387;28;20079;-70
2023/12/24 10:30:30;;;;;;;98.28;93.55;;;;;;;12.43;72.47;100422.06;5031325;28;20030;-72
2023/12/24 10:33:07;;;;;;;102.28;97.57;;;;;;;12.46;72.00;100424.22;5030456;28;20037;-70
2023/12/24 10:35:33;;;;;;;97.45;93.10;;;;;;;12.43;72.48;100422.06;5024154;28;20104;-70
2023/12/24 10:38:26;;;;;;;100.32;95.68;;;;;;;12.43;72.23;100416.63;5030497;28;20135;-71
2023/12/24 10:40:52;;;;;;;91.85;87.72;;;;;;;12.44;72.77;100409.31;5025458;28;20037;-70
2023/12/24 10:43:18;;;;;;;97.22;92.38;;;;;;;12.44;72.63;100415.53;5025874;28;20042;-70
2023/12/24 10:45:43;;;;;;;100.40;95.50;;;;;;;12.47;72.66;100412.34;5031110;28;20059;-70
2023/12/24 10:48:08;;;;;;;95.47;91.30;;;;;;;12.47;72.62;100404.22;5029498;28;20038;-71
2023/12/24 10:50:34;;;;;;;99.90;95.25;;;;;;;12.51;72.55;100402.59;5013806;28;20030;-70
2023/12/24 10:52:59;;;;;;;102.63;97.85;;;;;;;12.53;72.44;100405.03;5015668;28;20037;-70
2023/12/24 10:55:26;;;;;;;100.30;95.70;;;;;;;12.51;72.39;100407.19;5020090;28;20030;-71
2023/12/24 10:58:07;;;;;;;100.32;95.45;;;;;;;12.51;72.78;100408.00;5028760;28;20038;-73
2023/12/24 11:00:32;;;;;;;97.95;93.63;;;;;;;12.52;72.63;100401.53;5024107;28;20466;-72
2023/12/24 11:02:57;;;;;;;99.53;94.93;;;;;;;12.54;72.54;100383.09;5013436;28;20030;-71